Report METAR

 

KSJC - San Jose, California, USA
Distance from station: NE 14km
Dati ricevuti: 16/06/2024 15:53
Sereno
Sereno
 Vento da NO
Vento: NO 6 km/h
Temperatura: 15°C
P.to Rugiada: 9°C
Umidità: 68%
Barometro: 1012.9 hPa
Nuvole: Sereno
Visibility: 16 km
2024/06/16 13:53 KSJC 161353Z 32003KT 10SM CLR 15/09 A2991 RMK AO2 SLP126 T01500089
KNUQ - Moffett Nas/Mtn, California, USA
Distance from station: N 14km
Dati ricevuti: 16/06/2024 16:15
Haze, Sereno
Haze, Sereno
 Vento da calmo
Vento: Calma
Temperatura: 15°C
P.to Rugiada: 10°C
Umidità: 72%
Barometro: 1012.9 hPa
Summary: Haze
Nuvole: Sereno
Visibility: 10 km
2024/06/16 14:15 KNUQ 161415Z AUTO 00000KT 6SM HZ CLR 15/10 A2991 RMK AO2
KPAO - Palo Alto, California, USA
Distance from station: NNO 23km
Dati ricevuti: 16/06/2024 15:47
Sereno
Sereno
 Vento da Variabile
Vento: Variabile 6 km/h
Temperatura: 13°C
P.to Rugiada: 9°C
Umidità: 77%
Barometro: 1013.2 hPa
Nuvole: Sereno
Visibility: 13 km
2024/06/16 13:47 KPAO 161347Z VRB03KT 8SM SKC 13/09 A2992 HZ
 
KRHV - San Jose/Reid, California, USA
Distance from station: ENE 19km
Dati ricevuti: 16/06/2024 15:55
Sereno
Sereno
 Vento da calmo
Vento: Calma
Temperatura: 13°C
P.to Rugiada: 8°C
Umidità: 72%
Barometro: 1013.2 hPa
Nuvole: Sereno
Visibility: 16 km
2024/06/16 13:55 KRHV 161355Z 00000KT 10SM SKC 13/08 A2992
KOAK - Oakland, California, USA
Distance from station: NNO 50km
Dati ricevuti: 16/06/2024 15:53
Sereno
Sereno
 Vento da NNE
Vento: NNE 6 km/h
Temperatura: 14°C
P.to Rugiada: 11°C
Umidità: 82%
Barometro: 1012.9 hPa
Nuvole: Sereno
Visibility: 16 km
2024/06/16 13:53 KOAK 161353Z 02003KT 10SM CLR 14/11 A2991 RMK AO2 SLP127 T01390111
KSQL - San Carlos Airpo, California, USA
Distance from station: NO 34km
Dati ricevuti: 16/06/2024 15:55
Sereno
Sereno
 Vento da calmo
Vento: Calma
Temperatura: 13°C
P.to Rugiada: 8°C
Umidità: 72%
Barometro: 1013.2 hPa
Nuvole: Sereno
Visibility: 14 km
2024/06/16 13:55 KSQL 161355Z AUTO 00000KT 9SM CLR 13/08 A2992 RMK AO2
 
KSFO - San Francisco, California, USA
Distance from station: NO 49km
Dati ricevuti: 16/06/2024 15:56
Few Clouds
Few Clouds
 Vento da ONO
Vento: ONO 15 km/h
Temperatura: 12°C
P.to Rugiada: 8°C
Umidità: 77%
Barometro: 1012.9 hPa
Nuvole: Few Clouds
Visibility: 16 km
Cloud details: Few Clouds 152 m
2024/06/16 13:56 KSFO 161356Z 30008KT 10SM FEW005 12/08 A2991 RMK AO2 SLP127 T01170083
KE16 - San Martin, California, USA
Distance from station: ESE 43km
Dati ricevuti: 16/06/2024 16:15
Sereno
Sereno
 Vento da calmo
Vento: Calma
Temperatura: 12°C
P.to Rugiada: 8°C
Umidità: 77%
Barometro: 1013.9 hPa
Nuvole: Sereno
Visibility: 13 km
2024/06/16 14:15 KE16 161415Z AUTO 00000KT 8SM CLR 12/08 A2994 RMK AO2
KWVI - Watsonville, California, USA
Distance from station: SSE 44km
Dati ricevuti: 16/06/2024 15:53
Parz. nuvoloso
Parz. nuvoloso
 Vento da calmo
Vento: Calma
Temperatura: 11°C
P.to Rugiada: 8°C
Umidità: 82%
Barometro: 1012.9 hPa
Nuvole: Parz. nuvoloso
Visibility: 16 km
Cloud details: Parz. nuvoloso 152 m
2024/06/16 13:53 KWVI 161353Z AUTO 00000KT 10SM SCT005 11/08 A2991 RMK AO2 SLP129 T01060083
 
KHAF - Half Moon Bay, California, USA
Distance from station: ONO 50km
Dati ricevuti: 16/06/2024 16:35
Mist, Sereno
Mist, Sereno
 Vento da NNO
Vento: NNO 11 km/h
Temperatura: 12°C
P.to Rugiada: 10°C
Umidità: 88%
Barometro: 1013.5 hPa
Summary: Mist
Nuvole: Sereno
Visibility: 6 km
2024/06/16 14:35 KHAF 161435Z AUTO 34006KT 4SM BR CLR 12/10 A2993 RMK AO2
KHWD - Hayward, California, USA
Distance from station: N 44km
Dati ricevuti: 16/06/2024 15:54
Sereno
Sereno
 Vento da NE
Vento: NE 6 km/h
Temperatura: 14°C
P.to Rugiada: 9°C
Umidità: 72%
Barometro: 1012.5 hPa
Nuvole: Sereno
Visibility: 16 km
2024/06/16 13:54 KHWD 161354Z 04003KT 10SM CLR 14/09 A2990 RMK AO2 SLP136 T01390089
KLVK - Livermore, California, USA
Distance from station: NNE 51km
Dati ricevuti: 16/06/2024 15:53
Sereno
Sereno
 Vento da calmo
Vento: Calma
Temperatura: 13°C
P.to Rugiada: 8°C
Umidità: 72%
Barometro: 1012.5 hPa
Nuvole: Sereno
Visibility: 13 km
2024/06/16 13:53 KLVK 161353Z 00000KT 8SM CLR 13/08 A2990 RMK AO2 SLP122 T01280083